sensor_id;sensor_type;location;lat;lon;timestamp;temperature;humidity
18191;DHT22;47004;51.366;12.348;2023-10-09T00:01:41;11.90;99.90
18191;DHT22;47004;51.366;12.348;2023-10-09T00:03:45;11.90;99.90
18191;DHT22;47004;51.366;12.348;2023-10-09T00:05:54;11.80;99.90
18191;DHT22;47004;51.366;12.348;2023-10-09T00:07:56;11.90;99.90
18191;DHT22;47004;51.366;12.348;2023-10-09T00:09:58;11.80;99.90
18191;DHT22;47004;51.366;12.348;2023-10-09T00:12:00;11.90;99.90
18191;DHT22;47004;51.366;12.348;2023-10-09T00:14:11;11.90;99.90
18191;DHT22;47004;51.366;12.348;2023-10-09T00:16:13;11.80;99.90
18191;DHT22;47004;51.366;12.348;2023-10-09T00:18:15;11.80;99.90
18191;DHT22;47004;51.366;12.348;2023-10-09T00:20:22;11.90;99.90
18191;DHT22;47004;51.366;12.348;2023-10-09T00:22:39;11.80;99.90
18191;DHT22;47004;51.366;12.348;2023-10-09T00:24:44;11.90;99.90
18191;DHT22;47004;51.366;12.348;2023-10-09T00:26:50;12.20;99.90
18191;DHT22;47004;51.366;12.348;2023-10-09T00:28:56;11.90;99.90
18191;DHT22;47004;51.366;12.348;2023-10-09T00:30:58;11.90;99.90
18191;DHT22;47004;51.366;12.348;2023-10-09T00:33:03;12.10;99.90
18191;DHT22;47004;51.366;12.348;2023-10-09T00:35:08;11.90;99.90
18191;DHT22;47004;51.366;12.348;2023-10-09T00:37:26;11.90;99.90
18191;DHT22;47004;51.366;12.348;2023-10-09T00:39:36;11.80;99.90
18191;DHT22;47004;51.366;12.348;2023-10-09T00:41:44;11.90;99.90
18191;DHT22;47004;51.366;12.348;2023-10-09T00:43:46;11.80;99.90
18191;DHT22;47004;51.366;12.348;2023-10-09T00:45:50;11.80;99.90
18191;DHT22;47004;51.366;12.348;2023-10-09T00:47:51;11.80;99.90
18191;DHT22;47004;51.366;12.348;2023-10-09T00:49:58;11.80;99.90
18191;DHT22;47004;51.366;12.348;2023-10-09T00:52:01;11.80;99.90
18191;DHT22;47004;51.366;12.348;2023-10-09T00:54:07;11.80;99.90
18191;DHT22;47004;51.366;12.348;2023-10-09T00:56:16;11.80;99.90
18191;DHT22;47004;51.366;12.348;2023-10-09T00:58:29;11.60;99.90
18191;DHT22;47004;51.366;12.348;2023-10-09T01:00:36;11.80;99.90
18191;DHT22;47004;51.366;12.348;2023-10-09T01:02:47;11.80;99.90
18191;DHT22;47004;51.366;12.348;2023-10-09T01:05:09;11.80;99.90
18191;DHT22;47004;51.366;12.348;2023-10-09T01:07:19;11.80;99.90
18191;DHT22;47004;51.366;12.348;2023-10-09T01:09:29;11.90;99.90
18191;DHT22;47004;51.366;12.348;2023-10-09T01:11:38;11.90;99.90
18191;DHT22;47004;51.366;12.348;2023-10-09T01:13:50;11.90;99.90
18191;DHT22;47004;51.366;12.348;2023-10-09T01:16:04;11.80;99.90
18191;DHT22;47004;51.366;12.348;2023-10-09T01:18:07;11.90;99.90
18191;DHT22;47004;51.366;12.348;2023-10-09T01:20:10;11.90;99.90
18191;DHT22;47004;51.366;12.348;2023-10-09T01:22:17;11.90;99.90
18191;DHT22;47004;51.366;12.348;2023-10-09T01:24:23;11.90;99.90
18191;DHT22;47004;51.366;12.348;2023-10-09T01:26:27;11.90;99.90
18191;DHT22;47004;51.366;12.348;2023-10-09T01:28:33;11.90;99.90
18191;DHT22;47004;51.366;12.348;2023-10-09T01:30:34;12.00;99.90
18191;DHT22;47004;51.366;12.348;2023-10-09T01:32:42;11.90;99.90
18191;DHT22;47004;51.366;12.348;2023-10-09T01:34:46;11.90;99.90
18191;DHT22;47004;51.366;12.348;2023-10-09T01:36:51;11.90;99.90
18191;DHT22;47004;51.366;12.348;2023-10-09T01:38:54;11.90;99.90
18191;DHT22;47004;51.366;12.348;2023-10-09T01:40:58;11.90;99.90
18191;DHT22;47004;51.366;12.348;2023-10-09T01:43:07;11.90;99.90
18191;DHT22;47004;51.366;12.348;2023-10-09T01:45:11;11.90;99.90
18191;DHT22;47004;51.366;12.348;2023-10-09T01:47:13;11.90;99.90
18191;DHT22;47004;51.366;12.348;2023-10-09T01:49:18;11.90;99.90
18191;DHT22;47004;51.366;12.348;2023-10-09T01:51:22;11.90;99.90
18191;DHT22;47004;51.366;12.348;2023-10-09T01:53:24;11.90;99.90
18191;DHT22;47004;51.366;12.348;2023-10-09T01:55:31;11.90;99.90
18191;DHT22;47004;51.366;12.348;2023-10-09T01:57:37;11.90;99.90
18191;DHT22;47004;51.366;12.348;2023-10-09T01:59:40;11.90;99.90
18191;DHT22;47004;51.366;12.348;2023-10-09T02:01:45;11.90;99.90
18191;DHT22;47004;51.366;12.348;2023-10-09T02:03:48;11.90;99.90
18191;DHT22;47004;51.366;12.348;2023-10-09T02:05:52;12.00;99.90
18191;DHT22;47004;51.366;12.348;2023-10-09T02:08:00;11.90;99.90
18191;DHT22;47004;51.366;12.348;2023-10-09T02:10:03;12.20;99.90
18191;DHT22;47004;51.366;12.348;2023-10-09T02:12:05;11.90;99.90
18191;DHT22;47004;51.366;12.348;2023-10-09T02:14:10;11.90;99.90
18191;DHT22;47004;51.366;12.348;2023-10-09T02:16:19;11.90;99.90
18191;DHT22;47004;51.366;12.348;2023-10-09T02:18:28;11.90;99.90
18191;DHT22;47004;51.366;12.348;2023-10-09T02:21:04;11.90;99.90
18191;DHT22;47004;51.366;12.348;2023-10-09T02:23:14;12.00;99.90
18191;DHT22;47004;51.366;12.348;2023-10-09T02:25:17;11.90;99.90
18191;DHT22;47004;51.366;12.348;2023-10-09T02:27:22;11.90;99.90
18191;DHT22;47004;51.366;12.348;2023-10-09T02:29:45;11.90;99.90
18191;DHT22;47004;51.366;12.348;2023-10-09T02:31:47;11.90;99.90
18191;DHT22;47004;51.366;12.348;2023-10-09T02:33:53;12.20;99.90
18191;DHT22;47004;51.366;12.348;2023-10-09T02:35:56;11.90;99.90
18191;DHT22;47004;51.366;12.348;2023-10-09T02:38:00;11.90;99.90
18191;DHT22;47004;51.366;12.348;2023-10-09T02:40:05;11.90;99.90
18191;DHT22;47004;51.366;12.348;2023-10-09T02:42:09;11.90;99.90
18191;DHT22;47004;51.366;12.348;2023-10-09T02:44:23;11.90;99.90
18191;DHT22;47004;51.366;12.348;2023-10-09T02:46:27;12.10;99.90
18191;DHT22;47004;51.366;12.348;2023-10-09T02:48:33;11.90;99.90
18191;DHT22;47004;51.366;12.348;2023-10-09T02:50:37;11.90;99.90
18191;DHT22;47004;51.366;12.348;2023-10-09T02:52:46;11.90;99.90
18191;DHT22;47004;51.366;12.348;2023-10-09T02:54:48;11.90;99.90
18191;DHT22;47004;51.366;12.348;2023-10-09T02:56:59;11.90;99.90
18191;DHT22;47004;51.366;12.348;2023-10-09T02:59:07;11.80;99.90
18191;DHT22;47004;51.366;12.348;2023-10-09T03:01:10;11.90;99.90
18191;DHT22;47004;51.366;12.348;2023-10-09T03:03:13;11.90;99.90
18191;DHT22;47004;51.366;12.348;2023-10-09T03:05:19;11.90;99.90
18191;DHT22;47004;51.366;12.348;2023-10-09T03:07:21;12.00;99.90
18191;DHT22;47004;51.366;12.348;2023-10-09T03:09:24;12.00;99.90
18191;DHT22;47004;51.366;12.348;2023-10-09T03:11:28;12.00;99.90
18191;DHT22;47004;51.366;12.348;2023-10-09T03:13:32;12.00;99.90
18191;DHT22;47004;51.366;12.348;2023-10-09T03:15:33;12.00;99.90
18191;DHT22;47004;51.366;12.348;2023-10-09T03:17:36;12.30;99.90
18191;DHT22;47004;51.366;12.348;2023-10-09T03:19:39;12.00;99.90
18191;DHT22;47004;51.366;12.348;2023-10-09T03:21:41;12.00;99.90
18191;DHT22;47004;51.366;12.348;2023-10-09T03:23:44;11.90;99.90
18191;DHT22;47004;51.366;12.348;2023-10-09T03:25:49;12.00;99.90
18191;DHT22;47004;51.366;12.348;2023-10-09T03:27:51;12.00;99.90
18191;DHT22;47004;51.366;12.348;2023-10-09T03:29:58;11.90;99.90
18191;DHT22;47004;51.366;12.348;2023-10-09T03:32:00;11.90;99.90
18191;DHT22;47004;51.366;12.348;2023-10-09T03:34:01;12.10;99.90
18191;DHT22;47004;51.366;12.348;2023-10-09T03:36:05;11.90;99.90
18191;DHT22;47004;51.366;12.348;2023-10-09T03:38:09;11.90;99.90
18191;DHT22;47004;51.366;12.348;2023-10-09T03:40:17;11.90;99.90
18191;DHT22;47004;51.366;12.348;2023-10-09T03:42:20;11.90;99.90
18191;DHT22;47004;51.366;12.348;2023-10-09T03:44:25;11.90;99.90
18191;DHT22;47004;51.366;12.348;2023-10-09T03:46:29;11.90;99.90
18191;DHT22;47004;51.366;12.348;2023-10-09T03:48:34;11.90;99.90
18191;DHT22;47004;51.366;12.348;2023-10-09T03:50:36;11.90;99.90
18191;DHT22;47004;51.366;12.348;2023-10-09T03:52:40;11.90;99.90
18191;DHT22;47004;51.366;12.348;2023-10-09T03:54:41;11.90;99.90
18191;DHT22;47004;51.366;12.348;2023-10-09T03:56:45;11.90;99.90
18191;DHT22;47004;51.366;12.348;2023-10-09T03:58:51;11.90;99.90
18191;DHT22;47004;51.366;12.348;2023-10-09T04:00:53;12.20;99.90
18191;DHT22;47004;51.366;12.348;2023-10-09T04:02:55;11.90;99.90
18191;DHT22;47004;51.366;12.348;2023-10-09T04:04:57;11.90;99.90
18191;DHT22;47004;51.366;12.348;2023-10-09T04:06:59;12.00;99.90
18191;DHT22;47004;51.366;12.348;2023-10-09T04:09:04;11.90;99.90
18191;DHT22;47004;51.366;12.348;2023-10-09T04:11:27;11.90;99.90
18191;DHT22;47004;51.366;12.348;2023-10-09T04:13:31;12.00;99.90
18191;DHT22;47004;51.366;12.348;2023-10-09T04:15:36;11.90;99.90
18191;DHT22;47004;51.366;12.348;2023-10-09T04:17:38;11.90;99.90
18191;DHT22;47004;51.366;12.348;2023-10-09T04:19:43;11.90;99.90
18191;DHT22;47004;51.366;12.348;2023-10-09T04:21:48;11.90;99.90
18191;DHT22;47004;51.366;12.348;2023-10-09T04:23:51;11.90;99.90
18191;DHT22;47004;51.366;12.348;2023-10-09T04:26:11;11.90;99.90
18191;DHT22;47004;51.366;12.348;2023-10-09T04:28:15;11.90;99.90
18191;DHT22;47004;51.366;12.348;2023-10-09T04:30:20;11.90;99.90
18191;DHT22;47004;51.366;12.348;2023-10-09T04:32:24;11.90;99.90
18191;DHT22;47004;51.366;12.348;2023-10-09T04:34:26;11.90;99.90
18191;DHT22;47004;51.366;12.348;2023-10-09T04:36:29;11.90;99.90
18191;DHT22;47004;51.366;12.348;2023-10-09T04:38:49;11.90;99.90
18191;DHT22;47004;51.366;12.348;2023-10-09T04:41:18;11.90;99.90
18191;DHT22;47004;51.366;12.348;2023-10-09T04:43:28;11.90;99.90
18191;DHT22;47004;51.366;12.348;2023-10-09T04:45:30;12.00;99.90
18191;DHT22;47004;51.366;12.348;2023-10-09T04:47:48;11.90;99.90
18191;DHT22;47004;51.366;12.348;2023-10-09T04:50:08;11.90;99.90
18191;DHT22;47004;51.366;12.348;2023-10-09T04:52:11;12.00;99.90
18191;DHT22;47004;51.366;12.348;2023-10-09T04:54:20;11.90;99.90
18191;DHT22;47004;51.366;12.348;2023-10-09T04:56:41;12.00;99.90
18191;DHT22;47004;51.366;12.348;2023-10-09T04:58:53;12.20;99.90
18191;DHT22;47004;51.366;12.348;2023-10-09T05:01:04;11.90;99.90
18191;DHT22;47004;51.366;12.348;2023-10-09T05:03:13;11.90;99.90
18191;DHT22;47004;51.366;12.348;2023-10-09T05:05:27;11.90;99.90
18191;DHT22;47004;51.366;12.348;2023-10-09T05:07:43;11.90;99.90
18191;DHT22;47004;51.366;12.348;2023-10-09T05:09:55;11.90;99.90
18191;DHT22;47004;51.366;12.348;2023-10-09T05:11:57;11.90;99.90
18191;DHT22;47004;51.366;12.348;2023-10-09T05:14:16;11.90;99.90
18191;DHT22;47004;51.366;12.348;2023-10-09T05:16:19;11.90;99.90
18191;DHT22;47004;51.366;12.348;2023-10-09T05:18:26;11.90;99.90
18191;DHT22;47004;51.366;12.348;2023-10-09T05:20:28;11.90;99.90
18191;DHT22;47004;51.366;12.348;2023-10-09T05:22:47;11.90;99.90
18191;DHT22;47004;51.366;12.348;2023-10-09T05:24:59;11.90;99.90
18191;DHT22;47004;51.366;12.348;2023-10-09T05:27:01;11.90;99.90
18191;DHT22;47004;51.366;12.348;2023-10-09T05:29:19;11.90;99.90
18191;DHT22;47004;51.366;12.348;2023-10-09T05:31:20;11.90;99.90
18191;DHT22;47004;51.366;12.348;2023-10-09T05:33:56;11.90;99.90
18191;DHT22;47004;51.366;12.348;2023-10-09T05:36:03;11.90;99.90
18191;DHT22;47004;51.366;12.348;2023-10-09T05:38:18;11.90;99.90
18191;DHT22;47004;51.366;12.348;2023-10-09T05:40:24;11.90;99.90
18191;DHT22;47004;51.366;12.348;2023-10-09T05:42:34;11.90;99.90
18191;DHT22;47004;51.366;12.348;2023-10-09T05:44:43;11.90;99.90
18191;DHT22;47004;51.366;12.348;2023-10-09T05:47:16;11.90;99.90
18191;DHT22;47004;51.366;12.348;2023-10-09T05:49:41;11.80;99.90
18191;DHT22;47004;51.366;12.348;2023-10-09T05:51:55;11.90;99.90
18191;DHT22;47004;51.366;12.348;2023-10-09T05:54:16;11.90;99.90
18191;DHT22;47004;51.366;12.348;2023-10-09T05:56:35;11.90;99.90
18191;DHT22;47004;51.366;12.348;2023-10-09T05:58:57;11.90;99.90
18191;DHT22;47004;51.366;12.348;2023-10-09T06:01:16;11.90;99.90
18191;DHT22;47004;51.366;12.348;2023-10-09T06:03:50;11.90;99.90
18191;DHT22;47004;51.366;12.348;2023-10-09T06:05:56;11.90;99.90
18191;DHT22;47004;51.366;12.348;2023-10-09T06:08:04;12.00;99.90
18191;DHT22;47004;51.366;12.348;2023-10-09T06:10:08;12.00;99.90
18191;DHT22;47004;51.366;12.348;2023-10-09T06:12:19;12.00;99.90
18191;DHT22;47004;51.366;12.348;2023-10-09T06:14:52;12.00;99.90
18191;DHT22;47004;51.366;12.348;2023-10-09T06:17:04;12.00;99.90
18191;DHT22;47004;51.366;12.348;2023-10-09T06:19:24;12.20;99.90
18191;DHT22;47004;51.366;12.348;2023-10-09T06:21:27;11.90;99.90
18191;DHT22;47004;51.366;12.348;2023-10-09T06:23:40;11.60;99.90
18191;DHT22;47004;51.366;12.348;2023-10-09T06:26:02;11.60;99.90
18191;DHT22;47004;51.366;12.348;2023-10-09T06:28:24;11.80;99.90
18191;DHT22;47004;51.366;12.348;2023-10-09T06:30:44;11.80;99.90
18191;DHT22;47004;51.366;12.348;2023-10-09T06:32:47;11.80;99.90
18191;DHT22;47004;51.366;12.348;2023-10-09T06:34:59;11.80;99.90
18191;DHT22;47004;51.366;12.348;2023-10-09T06:37:16;11.80;99.90
18191;DHT22;47004;51.366;12.348;2023-10-09T06:39:35;11.80;99.90
18191;DHT22;47004;51.366;12.348;2023-10-09T06:41:51;11.80;99.90
18191;DHT22;47004;51.366;12.348;2023-10-09T06:44:09;11.80;99.90
18191;DHT22;47004;51.366;12.348;2023-10-09T06:46:42;11.80;99.90
18191;DHT22;47004;51.366;12.348;2023-10-09T06:48:53;11.80;99.90
18191;DHT22;47004;51.366;12.348;2023-10-09T06:50:57;11.80;99.90
18191;DHT22;47004;51.366;12.348;2023-10-09T06:53:08;11.90;99.90
18191;DHT22;47004;51.366;12.348;2023-10-09T06:55:24;11.90;99.90
18191;DHT22;47004;51.366;12.348;2023-10-09T06:57:35;12.00;99.90
18191;DHT22;47004;51.366;12.348;2023-10-09T06:59:49;11.90;99.90
18191;DHT22;47004;51.366;12.348;2023-10-09T07:02:10;11.90;99.90
18191;DHT22;47004;51.366;12.348;2023-10-09T07:04:26;12.00;99.90
18191;DHT22;47004;51.366;12.348;2023-10-09T07:06:45;12.00;99.90
18191;DHT22;47004;51.366;12.348;2023-10-09T07:08:51;12.10;99.90
18191;DHT22;47004;51.366;12.348;2023-10-09T07:11:16;12.20;99.90
18191;DHT22;47004;51.366;12.348;2023-10-09T07:13:44;12.20;99.90
18191;DHT22;47004;51.366;12.348;2023-10-09T07:15:53;12.20;99.90
18191;DHT22;47004;51.366;12.348;2023-10-09T07:18:16;12.20;99.90
18191;DHT22;47004;51.366;12.348;2023-10-09T07:20:23;12.20;99.90
18191;DHT22;47004;51.366;12.348;2023-10-09T07:22:40;12.30;99.90
18191;DHT22;47004;51.366;12.348;2023-10-09T07:24:54;12.30;99.90
18191;DHT22;47004;51.366;12.348;2023-10-09T07:26:58;12.40;99.90
18191;DHT22;47004;51.366;12.348;2023-10-09T07:29:06;12.40;99.90
18191;DHT22;47004;51.366;12.348;2023-10-09T07:31:22;12.40;99.90
18191;DHT22;47004;51.366;12.348;2023-10-09T07:33:32;12.40;99.90
18191;DHT22;47004;51.366;12.348;2023-10-09T07:35:52;12.50;99.90
18191;DHT22;47004;51.366;12.348;2023-10-09T07:37:58;12.50;99.90
18191;DHT22;47004;51.366;12.348;2023-10-09T07:40:03;12.50;99.90
18191;DHT22;47004;51.366;12.348;2023-10-09T07:42:08;12.50;99.90
18191;DHT22;47004;51.366;12.348;2023-10-09T07:44:34;12.50;99.90
18191;DHT22;47004;51.366;12.348;2023-10-09T07:46:37;12.60;99.90
18191;DHT22;47004;51.366;12.348;2023-10-09T07:48:55;12.60;99.90
18191;DHT22;47004;51.366;12.348;2023-10-09T07:50:56;12.60;99.90
18191;DHT22;47004;51.366;12.348;2023-10-09T07:52:58;12.70;99.90
18191;DHT22;47004;51.366;12.348;2023-10-09T07:55:16;12.70;99.90
18191;DHT22;47004;51.366;12.348;2023-10-09T07:57:30;12.70;99.90
18191;DHT22;47004;51.366;12.348;2023-10-09T07:59:40;12.80;99.90
18191;DHT22;47004;51.366;12.348;2023-10-09T08:01:50;12.80;99.90
18191;DHT22;47004;51.366;12.348;2023-10-09T08:03:55;12.80;99.90
18191;DHT22;47004;51.366;12.348;2023-10-09T08:06:05;12.80;99.90
18191;DHT22;47004;51.366;12.348;2023-10-09T08:08:30;12.90;99.90
18191;DHT22;47004;51.366;12.348;2023-10-09T08:10:40;12.90;99.90
18191;DHT22;47004;51.366;12.348;2023-10-09T08:13:01;12.90;99.90
18191;DHT22;47004;51.366;12.348;2023-10-09T08:15:27;13.10;99.90
18191;DHT22;47004;51.366;12.348;2023-10-09T08:17:35;12.90;99.90
18191;DHT22;47004;51.366;12.348;2023-10-09T08:19:39;12.90;99.90
18191;DHT22;47004;51.366;12.348;2023-10-09T08:21:54;12.90;99.90
18191;DHT22;47004;51.366;12.348;2023-10-09T08:24:18;13.00;99.90
18191;DHT22;47004;51.366;12.348;2023-10-09T08:26:34;13.00;99.90
18191;DHT22;47004;51.366;12.348;2023-10-09T08:28:48;13.00;99.90
18191;DHT22;47004;51.366;12.348;2023-10-09T08:30:49;13.00;99.90
18191;DHT22;47004;51.366;12.348;2023-10-09T08:33:03;13.00;99.90
18191;DHT22;47004;51.366;12.348;2023-10-09T08:35:08;13.00;99.90
18191;DHT22;47004;51.366;12.348;2023-10-09T08:37:30;13.10;99.90
18191;DHT22;47004;51.366;12.348;2023-10-09T08:39:31;13.10;99.90
18191;DHT22;47004;51.366;12.348;2023-10-09T08:41:35;13.10;99.90
18191;DHT22;47004;51.366;12.348;2023-10-09T08:43:39;13.10;99.90
18191;DHT22;47004;51.366;12.348;2023-10-09T08:45:46;13.10;99.90
18191;DHT22;47004;51.366;12.348;2023-10-09T08:47:48;13.00;99.90
18191;DHT22;47004;51.366;12.348;2023-10-09T08:49:53;13.10;99.90
18191;DHT22;47004;51.366;12.348;2023-10-09T08:51:56;13.10;99.90
18191;DHT22;47004;51.366;12.348;2023-10-09T08:54:04;13.20;99.90
18191;DHT22;47004;51.366;12.348;2023-10-09T08:56:12;13.20;99.90
18191;DHT22;47004;51.366;12.348;2023-10-09T08:58:20;13.20;99.90
18191;DHT22;47004;51.366;12.348;2023-10-09T09:00:25;13.20;99.90
18191;DHT22;47004;51.366;12.348;2023-10-09T09:02:33;13.20;99.90
18191;DHT22;47004;51.366;12.348;2023-10-09T09:04:37;13.30;99.90
18191;DHT22;47004;51.366;12.348;2023-10-09T09:06:40;13.30;99.90
18191;DHT22;47004;51.366;12.348;2023-10-09T09:08:44;13.30;99.90
18191;DHT22;47004;51.366;12.348;2023-10-09T09:10:47;13.30;99.90
18191;DHT22;47004;51.366;12.348;2023-10-09T09:12:51;13.30;99.90
18191;DHT22;47004;51.366;12.348;2023-10-09T09:15:01;13.30;99.90
18191;DHT22;47004;51.366;12.348;2023-10-09T09:17:03;13.40;99.90
18191;DHT22;47004;51.366;12.348;2023-10-09T09:19:13;13.40;99.90
18191;DHT22;47004;51.366;12.348;2023-10-09T09:21:19;13.40;99.90
18191;DHT22;47004;51.366;12.348;2023-10-09T09:23:23;13.40;99.90
18191;DHT22;47004;51.366;12.348;2023-10-09T09:25:40;13.40;99.90
18191;DHT22;47004;51.366;12.348;2023-10-09T09:27:45;13.40;99.90
18191;DHT22;47004;51.366;12.348;2023-10-09T09:29:53;13.40;99.90
18191;DHT22;47004;51.366;12.348;2023-10-09T09:31:56;13.40;99.90
18191;DHT22;47004;51.366;12.348;2023-10-09T09:34:07;13.50;99.90
18191;DHT22;47004;51.366;12.348;2023-10-09T09:36:19;13.50;99.90
18191;DHT22;47004;51.366;12.348;2023-10-09T09:38:27;13.30;99.90
18191;DHT22;47004;51.366;12.348;2023-10-09T09:40:31;13.60;99.90
18191;DHT22;47004;51.366;12.348;2023-10-09T09:42:36;13.60;99.90
18191;DHT22;47004;51.366;12.348;2023-10-09T09:44:45;13.60;99.90
18191;DHT22;47004;51.366;12.348;2023-10-09T09:46:47;13.70;99.90
18191;DHT22;47004;51.366;12.348;2023-10-09T09:48:50;13.60;99.90
18191;DHT22;47004;51.366;12.348;2023-10-09T09:50:54;13.70;99.90
18191;DHT22;47004;51.366;12.348;2023-10-09T09:52:55;13.70;99.90
18191;DHT22;47004;51.366;12.348;2023-10-09T09:54:57;13.80;99.90
18191;DHT22;47004;51.366;12.348;2023-10-09T09:57:02;13.80;99.90
18191;DHT22;47004;51.366;12.348;2023-10-09T09:59:09;13.80;99.90
18191;DHT22;47004;51.366;12.348;2023-10-09T10:01:24;13.90;99.90
18191;DHT22;47004;51.366;12.348;2023-10-09T10:03:30;13.90;99.90
18191;DHT22;47004;51.366;12.348;2023-10-09T10:05:34;14.00;99.90
18191;DHT22;47004;51.366;12.348;2023-10-09T10:07:38;14.10;99.90
18191;DHT22;47004;51.366;12.348;2023-10-09T10:09:43;14.20;99.90
18191;DHT22;47004;51.366;12.348;2023-10-09T10:11:46;14.20;99.90
18191;DHT22;47004;51.366;12.348;2023-10-09T10:13:57;14.30;99.90
18191;DHT22;47004;51.366;12.348;2023-10-09T10:16:05;14.30;99.90
18191;DHT22;47004;51.366;12.348;2023-10-09T10:18:13;14.40;99.90
18191;DHT22;47004;51.366;12.348;2023-10-09T10:20:19;14.40;99.90
18191;DHT22;47004;51.366;12.348;2023-10-09T10:22:31;14.40;99.90
18191;DHT22;47004;51.366;12.348;2023-10-09T10:24:42;14.40;99.90
18191;DHT22;47004;51.366;12.348;2023-10-09T10:27:16;14.40;99.90
18191;DHT22;47004;51.366;12.348;2023-10-09T10:29:26;14.40;99.90
18191;DHT22;47004;51.366;12.348;2023-10-09T10:31:51;14.40;99.90
18191;DHT22;47004;51.366;12.348;2023-10-09T10:34:04;14.40;99.90
18191;DHT22;47004;51.366;12.348;2023-10-09T10:36:11;14.40;99.90
18191;DHT22;47004;51.366;12.348;2023-10-09T10:38:28;14.40;99.90
18191;DHT22;47004;51.366;12.348;2023-10-09T10:40:38;14.30;99.90
18191;DHT22;47004;51.366;12.348;2023-10-09T10:42:47;14.30;99.90
18191;DHT22;47004;51.366;12.348;2023-10-09T10:45:17;14.30;99.90
18191;DHT22;47004;51.366;12.348;2023-10-09T10:47:35;14.30;99.90
18191;DHT22;47004;51.366;12.348;2023-10-09T10:49:37;14.30;99.90
18191;DHT22;47004;51.366;12.348;2023-10-09T10:51:42;14.20;99.90
18191;DHT22;47004;51.366;12.348;2023-10-09T10:53:52;14.20;99.90
18191;DHT22;47004;51.366;12.348;2023-10-09T10:56:15;14.20;99.90
18191;DHT22;47004;51.366;12.348;2023-10-09T10:58:19;14.20;99.90
18191;DHT22;47004;51.366;12.348;2023-10-09T11:00:27;14.20;99.90
18191;DHT22;47004;51.366;12.348;2023-10-09T11:02:46;14.20;99.90
18191;DHT22;47004;51.366;12.348;2023-10-09T11:04:48;14.20;99.90
18191;DHT22;47004;51.366;12.348;2023-10-09T11:06:55;14.20;99.90
18191;DHT22;47004;51.366;12.348;2023-10-09T11:09:08;14.20;99.90
18191;DHT22;47004;51.366;12.348;2023-10-09T11:11:22;14.20;99.90
18191;DHT22;47004;51.366;12.348;2023-10-09T11:13:26;14.20;99.90
18191;DHT22;47004;51.366;12.348;2023-10-09T11:15:38;14.20;99.90
18191;DHT22;47004;51.366;12.348;2023-10-09T11:17:57;14.20;99.90
18191;DHT22;47004;51.366;12.348;2023-10-09T11:20:06;14.20;99.90
18191;DHT22;47004;51.366;12.348;2023-10-09T11:22:22;14.30;99.90
18191;DHT22;47004;51.366;12.348;2023-10-09T11:24:29;14.30;99.90
18191;DHT22;47004;51.366;12.348;2023-10-09T11:26:37;14.30;99.90
18191;DHT22;47004;51.366;12.348;2023-10-09T11:28:42;14.30;99.90
18191;DHT22;47004;51.366;12.348;2023-10-09T11:30:50;14.30;99.90
18191;DHT22;47004;51.366;12.348;2023-10-09T11:33:05;14.30;99.90
18191;DHT22;47004;51.366;12.348;2023-10-09T11:35:12;14.30;99.90
18191;DHT22;47004;51.366;12.348;2023-10-09T11:37:21;14.30;99.90
18191;DHT22;47004;51.366;12.348;2023-10-09T11:39:39;14.30;99.90
18191;DHT22;47004;51.366;12.348;2023-10-09T11:42:00;14.30;99.90
18191;DHT22;47004;51.366;12.348;2023-10-09T11:44:04;14.30;99.90
18191;DHT22;47004;51.366;12.348;2023-10-09T11:46:11;14.30;99.90
18191;DHT22;47004;51.366;12.348;2023-10-09T11:48:18;14.40;99.90
18191;DHT22;47004;51.366;12.348;2023-10-09T11:50:42;14.40;99.90
18191;DHT22;47004;51.366;12.348;2023-10-09T11:53:01;14.40;99.90
18191;DHT22;47004;51.366;12.348;2023-10-09T11:55:20;14.40;99.90
18191;DHT22;47004;51.366;12.348;2023-10-09T11:57:25;14.40;99.90
18191;DHT22;47004;51.366;12.348;2023-10-09T11:59:33;14.50;99.90
18191;DHT22;47004;51.366;12.348;2023-10-09T12:01:39;14.40;99.90
18191;DHT22;47004;51.366;12.348;2023-10-09T12:03:47;14.50;99.90
18191;DHT22;47004;51.366;12.348;2023-10-09T12:05:51;14.50;99.90
18191;DHT22;47004;51.366;12.348;2023-10-09T12:07:54;14.50;99.90
18191;DHT22;47004;51.366;12.348;2023-10-09T12:09:58;14.50;99.90
18191;DHT22;47004;51.366;12.348;2023-10-09T12:12:01;14.50;99.90
18191;DHT22;47004;51.366;12.348;2023-10-09T12:14:04;14.50;99.90
18191;DHT22;47004;51.366;12.348;2023-10-09T12:16:06;14.50;99.90
18191;DHT22;47004;51.366;12.348;2023-10-09T12:18:11;14.50;99.90
18191;DHT22;47004;51.366;12.348;2023-10-09T12:20:15;14.50;99.90
18191;DHT22;47004;51.366;12.348;2023-10-09T12:22:30;14.50;99.90
18191;DHT22;47004;51.366;12.348;2023-10-09T12:24:34;14.50;99.90
18191;DHT22;47004;51.366;12.348;2023-10-09T12:26:36;14.50;99.90
18191;DHT22;47004;51.366;12.348;2023-10-09T12:28:40;14.50;99.90
18191;DHT22;47004;51.366;12.348;2023-10-09T12:30:48;14.50;99.90
18191;DHT22;47004;51.366;12.348;2023-10-09T12:32:53;14.50;99.90
18191;DHT22;47004;51.366;12.348;2023-10-09T12:34:56;14.50;99.90
18191;DHT22;47004;51.366;12.348;2023-10-09T12:36:58;14.50;99.90
18191;DHT22;47004;51.366;12.348;2023-10-09T12:39:01;14.50;99.90
18191;DHT22;47004;51.366;12.348;2023-10-09T12:41:07;14.50;99.90
18191;DHT22;47004;51.366;12.348;2023-10-09T12:43:20;14.50;99.90
18191;DHT22;47004;51.366;12.348;2023-10-09T12:45:22;14.50;99.90
18191;DHT22;47004;51.366;12.348;2023-10-09T12:47:26;14.50;99.90
18191;DHT22;47004;51.366;12.348;2023-10-09T12:49:28;14.50;99.90
18191;DHT22;47004;51.366;12.348;2023-10-09T12:51:31;14.50;99.90
18191;DHT22;47004;51.366;12.348;2023-10-09T12:53:33;14.50;99.90
18191;DHT22;47004;51.366;12.348;2023-10-09T12:55:36;14.50;99.90
18191;DHT22;47004;51.366;12.348;2023-10-09T12:57:40;14.50;99.90
18191;DHT22;47004;51.366;12.348;2023-10-09T12:59:43;14.50;99.90
18191;DHT22;47004;51.366;12.348;2023-10-09T13:01:46;14.50;99.90
18191;DHT22;47004;51.366;12.348;2023-10-09T13:04:02;14.50;99.90
18191;DHT22;47004;51.366;12.348;2023-10-09T13:06:12;14.50;99.90
18191;DHT22;47004;51.366;12.348;2023-10-09T13:08:15;14.50;99.90
18191;DHT22;47004;51.366;12.348;2023-10-09T13:10:20;14.50;99.90
18191;DHT22;47004;51.366;12.348;2023-10-09T13:12:24;14.50;99.90
18191;DHT22;47004;51.366;12.348;2023-10-09T13:14:32;14.50;99.90
18191;DHT22;47004;51.366;12.348;2023-10-09T13:16:34;14.50;99.90
18191;DHT22;47004;51.366;12.348;2023-10-09T13:18:35;14.50;99.90
18191;DHT22;47004;51.366;12.348;2023-10-09T13:20:38;14.30;99.90